Etusivu
METAR-TAF:

METAR-TAF

Lentoasemat :

Tunis, Tunisia

Leveyspiiri: 36-50N, Pituuspiiri: 010-14E, korkeus merenpinnasta: 3 m

Tämänhetkinen sää

Tämä raportti tehtiin 37 minuuttia sitten, kello 09.30 UTC
Tuuli 3 kn koillisesta, vaihdellen pohjoisen/luoteen ja kaakon välillä
Lämpötila 25°C
Kosteus 54%
Ilmanpaine 1018 hPa
Näkyvyys 10 km tai enemmän
Hajanaisia pilviä 2600 ft:n korkeudessa

METAR: DTTA 270930Z 05003KT 330V130 9999 SCT026 25/15 Q1018 NOSIG

Aika: 11:07 (10:07 UTC)

Sääennuste

Tämä raportti tehtiin 4 tuntia ja 20 minuuttia sitten, kello 05.47 UTC
Ennuste voimassa 27. päivästä klo 06 UTC - 28. päivään klo 06 UTC
Tuuli 5 kn idästä/koillisesta
Näkyvyys 10 km tai enemmän
Muutamia pilviä 2600 ft:n korkeudessa
Tulossa
27. päivästä klo 07 UTC - 27. päivään klo 09 UTC
Tuuli 10 kn pohjoisesta
Näkyvyys 10 km tai enemmän
ei pilviä alle 1500 m:ssä eikä cumulonimbus-pilviä

TAF: DTTA 270547Z 2706/2806 06005KT 9999 FEW026 BECMG 2707/2709 01010KT CAVOK

Säähavainnot ja -ennusteet yli 4000 lentoasemalta (METAR- ja TAF-raportit).

Käytössä olevat sääasemat on merkitty karttaan keltaisilla ja punaisilla pisteillä.

Aseta hiiri pisteen päälle nähdäksesi sääaseman nimen.

Klikkaa sitten nähdäksesi säähavainnot ja -ennusteet.

Kartan vaihtaminen: klikkaa mustalla rastilla varustettuja vihreitä pisteitä, niin voit zoomata sisään; viivalla varustettua vihreää pistettä, niin voit zoomata ulos tai vihreitä nuolia, niin pääset viereisille kartoille.


METAR-TAF: